createdAt,value
2017-10-15T00:01:32.708Z,15.13
2017-10-15T00:03:59.704Z,20.20
2017-10-15T00:06:25.962Z,19.30
2017-10-15T00:08:52.232Z,21.07
2017-10-15T00:11:18.542Z,21.80
2017-10-15T00:13:46.642Z,20.63
2017-10-15T00:16:12.912Z,20.17
2017-10-15T00:18:39.186Z,20.93
2017-10-15T00:21:06.208Z,24.73
2017-10-15T00:23:34.043Z,25.03
2017-10-15T00:26:00.333Z,25.63
2017-10-15T00:28:27.338Z,22.63
2017-10-15T00:30:53.605Z,25.27
2017-10-15T00:33:20.644Z,25.07
2017-10-15T00:35:47.710Z,24.73
2017-10-15T00:38:13.965Z,23.30
2017-10-15T00:40:40.283Z,25.30
2017-10-15T00:43:06.565Z,31.73
2017-10-15T00:45:32.858Z,27.37
2017-10-15T00:47:59.113Z,26.37
2017-10-15T00:50:25.470Z,30.83
2017-10-15T00:52:51.745Z,26.37
2017-10-15T00:55:18.087Z,27.10
2017-10-15T00:57:44.390Z,32.57
2017-10-15T01:00:10.671Z,31.23
2017-10-15T01:02:36.956Z,29.10
2017-10-15T01:05:03.282Z,32.27
2017-10-15T01:07:29.599Z,31.40
2017-10-15T01:09:56.614Z,37.00
2017-10-15T01:12:22.904Z,31.73
2017-10-15T01:14:49.200Z,28.80
2017-10-15T01:17:16.201Z,31.50
2017-10-15T01:19:42.476Z,28.97
2017-10-15T01:22:09.519Z,32.10
2017-10-15T01:24:36.554Z,28.67
2017-10-15T01:27:02.821Z,28.40
2017-10-15T01:29:29.231Z,26.27
2017-10-15T01:31:56.305Z,28.73
2017-10-15T01:34:22.560Z,27.87
2017-10-15T01:36:48.809Z,25.10
2017-10-15T01:39:15.123Z,28.13
2017-10-15T01:41:41.409Z,24.97
2017-10-15T01:44:07.698Z,29.03
2017-10-15T01:46:34.017Z,25.47
2017-10-15T01:49:00.282Z,28.57
2017-10-15T01:51:26.560Z,25.63
2017-10-15T01:53:52.797Z,27.77
2017-10-15T01:56:19.092Z,23.70
2017-10-15T01:58:46.100Z,29.50
2017-10-15T02:01:12.366Z,31.00
2017-10-15T02:03:38.664Z,28.40
2017-10-15T02:06:04.998Z,23.23
2017-10-15T02:08:31.279Z,19.80
2017-10-15T02:10:57.613Z,25.83
2017-10-15T02:13:23.900Z,19.20
2017-10-15T02:15:50.199Z,23.40
2017-10-15T02:18:16.475Z,24.90
2017-10-15T02:20:43.486Z,29.73
2017-10-15T02:23:09.813Z,28.47
2017-10-15T02:25:36.079Z,22.60
2017-10-15T02:28:03.161Z,23.97
2017-10-15T02:30:29.425Z,19.83
2017-10-15T02:32:55.693Z,20.63
2017-10-15T02:35:22.689Z,19.10
2017-10-15T02:37:48.946Z,22.23
2017-10-15T02:40:15.261Z,25.13
2017-10-15T02:42:41.553Z,22.57
2017-10-15T02:45:07.871Z,23.00
2017-10-15T02:47:34.218Z,20.27
2017-10-15T02:50:00.487Z,21.17
2017-10-15T02:52:26.779Z,24.33
2017-10-15T02:54:53.105Z,21.60
2017-10-15T02:57:19.408Z,26.07
2017-10-15T02:59:46.419Z,25.83
2017-10-15T03:02:12.653Z,17.87
2017-10-15T03:04:38.921Z,20.63
2017-10-15T03:07:05.908Z,17.60
2017-10-15T03:09:32.346Z,24.30
2017-10-15T03:11:58.632Z,19.57
2017-10-15T03:14:25.620Z,21.60
2017-10-15T03:16:51.908Z,22.40
2017-10-15T03:19:18.224Z,20.60
2017-10-15T03:21:45.334Z,17.73
2017-10-15T03:24:11.618Z,21.50
2017-10-15T03:26:37.912Z,18.83
2017-10-15T03:29:04.159Z,15.83
2017-10-15T03:31:30.582Z,18.27
2017-10-15T03:33:56.862Z,18.60
2017-10-15T03:36:23.230Z,18.47
2017-10-15T03:38:49.504Z,18.03
2017-10-15T03:41:16.849Z,17.00
2017-10-15T03:43:43.903Z,22.40
2017-10-15T03:46:10.940Z,19.17
2017-10-15T03:48:37.218Z,15.50
2017-10-15T03:51:03.525Z,18.33
2017-10-15T03:53:29.771Z,19.80
2017-10-15T03:55:56.097Z,18.00
2017-10-15T03:58:22.338Z,18.27
2017-10-15T04:00:48.583Z,21.80
2017-10-15T04:03:14.836Z,21.13
2017-10-15T04:05:41.089Z,21.83
2017-10-15T04:08:08.118Z,19.43
2017-10-15T04:10:34.417Z,21.27
2017-10-15T04:13:00.683Z,24.33
2017-10-15T04:15:26.927Z,14.20
2017-10-15T04:17:53.246Z,19.30
2017-10-15T04:20:19.533Z,18.17
2017-10-15T04:22:46.001Z,16.10
2017-10-15T04:25:13.793Z,23.23
2017-10-15T04:27:40.053Z,17.73
2017-10-15T04:30:06.425Z,20.30
2017-10-15T04:32:32.728Z,16.97
2017-10-15T04:34:58.986Z,21.07
2017-10-15T04:37:25.253Z,22.00
2017-10-15T04:39:58.619Z,18.10
2017-10-15T04:42:24.861Z,18.10
2017-10-15T04:44:51.882Z,18.10
2017-10-15T04:47:18.212Z,16.50
2017-10-15T04:49:44.575Z,17.50
2017-10-15T04:52:11.618Z,16.33
2017-10-15T04:54:38.628Z,15.80
2017-10-15T04:57:04.902Z,14.27
2017-10-15T04:59:31.924Z,22.37
2017-10-15T05:01:58.238Z,14.43
2017-10-15T05:04:24.672Z,17.60
2017-10-15T05:06:50.994Z,18.17
2017-10-15T05:09:17.256Z,17.90
2017-10-15T05:11:43.509Z,20.10
2017-10-15T05:14:10.547Z,15.87
2017-10-15T05:16:38.493Z,15.63
2017-10-15T05:19:04.832Z,18.90
2017-10-15T05:21:31.139Z,15.97
2017-10-15T05:23:57.411Z,16.63
2017-10-15T05:26:24.456Z,17.37
2017-10-15T05:28:51.469Z,16.80
2017-10-15T05:31:17.757Z,18.73
2017-10-15T05:33:44.069Z,15.80
2017-10-15T05:36:10.400Z,22.80
2017-10-15T05:38:37.401Z,15.87
2017-10-15T05:41:03.674Z,14.97
2017-10-15T05:43:30.700Z,18.13
2017-10-15T05:45:57.185Z,14.53
2017-10-15T05:48:23.506Z,14.83
2017-10-15T05:50:49.810Z,16.47
2017-10-15T05:53:16.276Z,15.00
2017-10-15T05:55:42.534Z,15.40
2017-10-15T05:58:08.874Z,14.70
2017-10-15T06:00:35.140Z,14.20
2017-10-15T06:03:02.130Z,12.17
2017-10-15T06:05:28.410Z,18.10
2017-10-15T06:07:55.426Z,16.30
2017-10-15T06:10:21.694Z,14.10
2017-10-15T06:12:48.754Z,13.90
2017-10-15T06:15:15.073Z,19.13
2017-10-15T06:17:42.149Z,14.40
2017-10-15T06:20:08.379Z,14.33
2017-10-15T06:22:34.684Z,12.10
2017-10-15T06:25:01.702Z,15.47
2017-10-15T06:27:27.994Z,14.47
2017-10-15T06:29:54.333Z,16.77
2017-10-15T06:32:20.664Z,18.40
2017-10-15T06:34:47.015Z,13.30
2017-10-15T06:37:14.227Z,16.43
2017-10-15T06:39:40.571Z,11.40
2017-10-15T06:42:06.875Z,10.93
2017-10-15T06:44:33.237Z,9.10
2017-10-15T06:46:59.542Z,16.07
2017-10-15T06:49:26.614Z,10.90
2017-10-15T06:51:52.989Z,10.80
2017-10-15T06:54:19.539Z,11.13
2017-10-15T06:56:46.839Z,12.63
2017-10-15T06:59:13.180Z,12.20
2017-10-15T07:01:39.472Z,11.57
2017-10-15T07:04:06.468Z,11.80
2017-10-15T07:06:32.767Z,19.40
2017-10-15T07:08:59.061Z,12.97
2017-10-15T07:11:25.381Z,11.10
2017-10-15T07:13:51.689Z,12.20
2017-10-15T07:16:18.021Z,9.30
2017-10-15T07:18:44.341Z,8.77
2017-10-15T07:21:10.684Z,7.73
2017-10-15T07:23:38.052Z,10.93
2017-10-15T07:26:04.336Z,10.13
2017-10-15T07:28:30.597Z,8.00
2017-10-15T07:30:56.862Z,13.73
2017-10-15T07:33:23.992Z,7.60
2017-10-15T07:35:50.245Z,9.70
2017-10-15T07:38:17.228Z,7.60
2017-10-15T07:40:43.489Z,9.37
2017-10-15T07:43:09.876Z,12.03
2017-10-15T07:45:36.206Z,9.07
2017-10-15T07:48:02.523Z,11.43
2017-10-15T07:50:29.564Z,8.73
2017-10-15T07:52:56.583Z,7.57
2017-10-15T07:55:22.852Z,8.00
2017-10-15T07:57:50.714Z,6.40
2017-10-15T08:00:17.819Z,6.07
2017-10-15T08:02:44.131Z,11.30
2017-10-15T08:05:10.411Z,8.53
2017-10-15T08:07:36.688Z,10.10
2017-10-15T08:10:03.010Z,5.50
2017-10-15T08:12:29.285Z,8.13
2017-10-15T08:14:55.577Z,8.60
2017-10-15T08:17:21.845Z,8.87
2017-10-15T08:19:48.183Z,6.33
2017-10-15T08:22:14.463Z,11.10
2017-10-15T08:24:40.769Z,7.30
2017-10-15T08:27:07.813Z,6.60
2017-10-15T08:29:34.821Z,6.70
2017-10-15T08:32:01.091Z,6.97
2017-10-15T08:34:28.133Z,8.90
2017-10-15T08:36:55.213Z,8.90
2017-10-15T08:39:21.552Z,12.33
2017-10-15T08:41:47.878Z,9.33
2017-10-15T08:44:14.176Z,9.57
2017-10-15T08:46:41.188Z,8.20
2017-10-15T08:49:08.484Z,11.10
2017-10-15T08:51:35.544Z,10.97
2017-10-15T08:54:01.845Z,12.53
2017-10-15T08:56:28.168Z,8.43
2017-10-15T08:58:54.440Z,11.30
2017-10-15T09:01:20.705Z,8.03
2017-10-15T09:03:47.005Z,8.27
2017-10-15T09:06:13.396Z,9.00
2017-10-15T09:08:39.815Z,11.63
2017-10-15T09:11:06.235Z,10.93
2017-10-15T09:13:33.566Z,8.20
2017-10-15T09:15:59.921Z,8.13
2017-10-15T09:18:26.207Z,8.43
2017-10-15T09:20:53.213Z,10.70
2017-10-15T09:23:19.534Z,8.63
2017-10-15T09:25:45.859Z,6.67
2017-10-15T09:28:12.189Z,8.33
2017-10-15T09:30:39.169Z,13.57
2017-10-15T09:33:05.514Z,10.00
2017-10-15T09:35:32.546Z,7.00
2017-10-15T09:37:58.866Z,8.43
2017-10-15T09:40:25.172Z,11.27
2017-10-15T09:42:51.562Z,8.50
2017-10-15T09:45:18.610Z,9.83
2017-10-15T09:47:45.722Z,8.87
2017-10-15T09:50:12.025Z,9.80
2017-10-15T09:52:38.323Z,8.33
2017-10-15T09:55:05.357Z,8.77
2017-10-15T09:57:32.418Z,9.43
2017-10-15T09:59:59.499Z,12.13
2017-10-15T10:02:25.809Z,13.57
2017-10-15T10:04:52.072Z,9.03
2017-10-15T10:07:18.511Z,10.53
2017-10-15T10:09:44.905Z,5.97
2017-10-15T10:12:11.169Z,6.53
2017-10-15T10:14:37.458Z,13.70
2017-10-15T10:17:03.799Z,8.20
2017-10-15T10:19:30.109Z,8.67
2017-10-15T10:21:57.210Z,8.27
2017-10-15T10:24:23.514Z,10.50
2017-10-15T10:26:49.899Z,5.23
2017-10-15T10:29:16.253Z,6.83
2017-10-15T10:31:43.314Z,6.57
2017-10-15T10:34:10.473Z,6.70
2017-10-15T10:36:37.004Z,8.20
2017-10-15T10:39:03.539Z,8.20
2017-10-15T10:41:29.940Z,8.67
2017-10-15T10:43:56.257Z,6.20
2017-10-15T10:46:22.554Z,15.03
2017-10-15T10:48:48.908Z,5.33
2017-10-15T10:51:15.318Z,6.47
2017-10-15T10:53:41.722Z,4.80
2017-10-15T10:56:08.840Z,4.83
2017-10-15T10:58:35.249Z,4.97
2017-10-15T11:01:01.611Z,4.93
2017-10-15T11:03:27.928Z,5.00
2017-10-15T11:05:54.265Z,5.60
2017-10-15T11:08:20.664Z,6.23
2017-10-15T11:10:47.073Z,5.10
2017-10-15T11:13:13.403Z,6.87
2017-10-15T11:15:39.731Z,5.50
2017-10-15T11:18:06.795Z,3.40
2017-10-15T11:20:33.170Z,3.27
2017-10-15T11:22:59.643Z,4.00
2017-10-15T11:25:26.738Z,4.60
2017-10-15T11:27:53.081Z,3.07
2017-10-15T11:30:19.422Z,2.97
2017-10-15T11:32:46.441Z,3.13
2017-10-15T11:35:12.757Z,2.60
2017-10-15T11:37:39.101Z,2.10
2017-10-15T11:40:05.432Z,2.97
2017-10-15T11:42:32.325Z,2.63
2017-10-15T11:44:59.146Z,2.10
2017-10-15T11:47:26.997Z,5.40
2017-10-15T11:49:54.145Z,2.23
2017-10-15T11:52:20.417Z,2.93
2017-10-15T11:54:46.803Z,2.03
2017-10-15T11:57:13.082Z,2.73
2017-10-15T11:59:40.187Z,3.47
2017-10-15T12:02:06.676Z,2.10
2017-10-15T12:04:32.975Z,2.00
2017-10-15T12:06:59.304Z,5.10
2017-10-15T12:09:25.592Z,1.97
2017-10-15T12:11:51.948Z,3.30
2017-10-15T12:14:18.298Z,1.80
2017-10-15T12:16:44.572Z,2.13
2017-10-15T12:19:10.925Z,1.40
2017-10-15T12:21:37.220Z,5.27
2017-10-15T12:24:04.353Z,1.73
2017-10-15T12:26:30.663Z,1.80
2017-10-15T12:28:56.985Z,2.10
2017-10-15T12:31:24.092Z,3.13
2017-10-15T12:33:50.394Z,1.93
2017-10-15T12:36:16.754Z,1.57
2017-10-15T12:38:43.088Z,1.87
2017-10-15T12:41:09.406Z,1.80
2017-10-15T12:43:35.731Z,2.00
2017-10-15T12:46:02.722Z,3.17
2017-10-15T12:48:29.038Z,1.70
2017-10-15T12:50:55.366Z,1.63
2017-10-15T12:53:22.120Z,2.07
2017-10-15T12:55:48.494Z,2.20
2017-10-15T12:58:14.954Z,2.73
2017-10-15T13:00:41.403Z,1.67
2017-10-15T13:03:07.793Z,1.80
2017-10-15T13:05:35.082Z,1.63
2017-10-15T13:08:01.454Z,3.00
2017-10-15T13:10:27.801Z,1.50
2017-10-15T13:12:54.110Z,1.83
2017-10-15T13:15:20.430Z,2.50
2017-10-15T13:17:46.911Z,2.83
2017-10-15T13:20:13.246Z,9.33
2017-10-15T13:22:39.625Z,1.43
2017-10-15T13:25:06.825Z,1.37
2017-10-15T13:27:33.203Z,3.50
2017-10-15T13:29:59.529Z,3.37
2017-10-15T13:32:25.823Z,1.73
2017-10-15T13:34:52.127Z,2.27
2017-10-15T13:37:18.454Z,3.63
2017-10-15T13:39:44.746Z,1.63
2017-10-15T13:42:11.098Z,2.37
2017-10-15T13:44:37.424Z,2.97
2017-10-15T13:47:03.703Z,11.00
2017-10-15T13:49:30.012Z,4.00
2017-10-15T13:51:56.302Z,1.87
2017-10-15T13:54:22.590Z,2.17
2017-10-15T13:56:48.982Z,3.13
2017-10-15T13:59:15.310Z,2.50
2017-10-15T14:01:41.691Z,2.27
2017-10-15T14:04:08.093Z,2.90
2017-10-15T14:06:34.366Z,2.30
2017-10-15T14:09:01.444Z,3.63
2017-10-15T14:11:27.814Z,4.00
2017-10-15T14:13:54.187Z,2.50
2017-10-15T14:16:21.254Z,3.20
2017-10-15T14:18:47.855Z,5.50
2017-10-15T14:21:14.179Z,2.30
2017-10-15T14:23:40.493Z,3.80
2017-10-15T14:26:06.789Z,6.40
2017-10-15T14:28:33.686Z,2.90
2017-10-15T14:30:59.991Z,3.20
2017-10-15T14:33:26.316Z,2.73
2017-10-15T14:35:52.659Z,3.17
2017-10-15T14:38:18.974Z,3.13
2017-10-15T14:40:45.311Z,3.20
2017-10-15T14:43:11.682Z,3.83
2017-10-15T14:45:38.111Z,3.27
2017-10-15T14:48:04.489Z,3.80
2017-10-15T14:50:30.919Z,3.83
2017-10-15T14:52:57.283Z,4.20
2017-10-15T14:55:23.625Z,2.33
2017-10-15T14:57:49.929Z,2.70
2017-10-15T15:00:16.234Z,3.60
2017-10-15T15:02:42.602Z,5.13
2017-10-15T15:05:09.142Z,2.70
2017-10-15T15:07:37.870Z,4.67
2017-10-15T15:10:06.941Z,5.17
2017-10-15T15:12:33.589Z,4.67
2017-10-15T15:14:59.893Z,5.03
2017-10-15T15:17:26.326Z,6.90
2017-10-15T15:19:52.693Z,5.03
2017-10-15T15:22:19.469Z,5.50
2017-10-15T15:24:45.838Z,6.67
2017-10-15T15:27:12.147Z,6.30
2017-10-15T15:29:38.539Z,8.10
2017-10-15T15:32:05.605Z,9.77
2017-10-15T15:34:32.300Z,8.33
2017-10-15T15:36:58.613Z,9.23
2017-10-15T15:39:24.994Z,11.60
2017-10-15T15:41:52.196Z,7.97
2017-10-15T15:44:18.561Z,7.23
2017-10-15T15:46:44.978Z,6.20
2017-10-15T15:49:12.034Z,14.70
2017-10-15T15:51:39.110Z,8.37
2017-10-15T15:54:06.236Z,9.73
2017-10-15T15:56:32.752Z,7.33
2017-10-15T15:58:59.120Z,15.10
2017-10-15T16:01:26.196Z,15.17
2017-10-15T16:03:52.480Z,11.20
2017-10-15T16:06:18.820Z,9.33
2017-10-15T16:08:46.553Z,11.00
2017-10-15T16:11:12.961Z,9.00
2017-10-15T16:13:39.405Z,14.50
2017-10-15T16:16:05.681Z,13.03
2017-10-15T16:18:33.178Z,18.07
2017-10-15T16:21:00.579Z,23.73
2017-10-15T16:23:27.132Z,13.03
2017-10-15T16:25:53.450Z,12.60
2017-10-15T16:28:19.846Z,13.70
2017-10-15T16:30:46.388Z,13.20
2017-10-15T16:33:13.832Z,13.10
2017-10-15T16:35:40.195Z,14.13
2017-10-15T16:38:06.687Z,11.07
2017-10-15T16:40:33.124Z,14.80
2017-10-15T16:42:59.628Z,18.17
2017-10-15T16:45:25.945Z,12.70
2017-10-15T16:47:52.329Z,14.70
2017-10-15T16:50:19.513Z,13.80
2017-10-15T16:52:45.945Z,13.03
2017-10-15T16:55:12.312Z,21.87
2017-10-15T16:57:38.621Z,24.43
2017-10-15T17:00:05.109Z,18.33
2017-10-15T17:02:31.653Z,17.60
2017-10-15T17:04:58.075Z,16.17
2017-10-15T17:07:24.448Z,14.03
2017-10-15T17:09:50.829Z,10.33
2017-10-15T17:12:17.242Z,23.13
2017-10-15T17:14:43.575Z,17.03
2017-10-15T17:17:09.949Z,20.37
2017-10-15T17:19:40.159Z,17.57
2017-10-15T17:22:06.560Z,15.50
2017-10-15T17:24:32.843Z,21.50
2017-10-15T17:27:00.210Z,15.23
2017-10-15T17:29:27.822Z,17.93
2017-10-15T17:31:54.150Z,16.27
2017-10-15T17:34:20.559Z,19.60
2017-10-15T17:36:46.955Z,19.40
2017-10-15T17:39:13.287Z,16.20
2017-10-15T17:41:39.636Z,20.63
2017-10-15T17:44:06.063Z,17.67
2017-10-15T17:46:32.394Z,15.63
2017-10-15T17:48:58.832Z,18.73
2017-10-15T17:51:25.271Z,22.20
2017-10-15T17:53:51.673Z,15.07
2017-10-15T17:56:18.048Z,18.73
2017-10-15T17:58:44.386Z,17.63
2017-10-15T18:01:11.293Z,15.33
2017-10-15T18:03:37.649Z,18.30
2017-10-15T18:06:04.487Z,22.20
2017-10-15T18:08:30.932Z,16.67
2017-10-15T18:10:57.358Z,23.00
2017-10-15T18:13:23.831Z,18.20
2017-10-15T18:15:50.368Z,17.23
2017-10-15T18:18:17.603Z,17.00
2017-10-15T18:20:43.997Z,22.67
2017-10-15T18:23:10.471Z,16.00
2017-10-15T18:25:37.696Z,24.50
2017-10-15T18:28:04.280Z,20.40
2017-10-15T18:30:31.674Z,20.40
2017-10-15T18:32:58.033Z,17.50
2017-10-15T18:35:24.428Z,14.40
2017-10-15T18:37:50.827Z,25.50
2017-10-15T18:40:17.203Z,20.13
2017-10-15T18:42:43.647Z,19.77
2017-10-15T18:45:11.280Z,20.53
2017-10-15T18:47:37.729Z,17.97
2017-10-15T18:50:04.200Z,20.33
2017-10-15T18:52:31.844Z,24.13
2017-10-15T18:54:58.275Z,21.47
2017-10-15T18:57:24.704Z,23.40
2017-10-15T18:59:51.173Z,23.07
2017-10-15T19:02:17.524Z,23.87
2017-10-15T19:04:44.620Z,32.17
2017-10-15T19:07:11.790Z,22.80
2017-10-15T19:09:39.162Z,24.47
2017-10-15T19:12:05.770Z,25.47
2017-10-15T19:14:32.277Z,26.30
2017-10-15T19:16:58.641Z,25.43
2017-10-15T19:19:25.182Z,26.33
2017-10-15T19:21:51.648Z,23.70
2017-10-15T19:24:18.011Z,27.23
2017-10-15T19:26:44.347Z,22.93
2017-10-15T19:29:10.756Z,27.77
2017-10-15T19:31:37.872Z,24.30
2017-10-15T19:34:04.422Z,25.17
2017-10-15T19:36:30.802Z,33.53
2017-10-15T19:38:57.226Z,24.60
2017-10-15T19:41:24.718Z,27.50
2017-10-15T19:43:51.100Z,27.00
2017-10-15T19:46:17.463Z,19.33
2017-10-15T19:48:43.854Z,27.67
2017-10-15T19:51:11.034Z,22.53
2017-10-15T19:53:37.396Z,19.13
2017-10-15T19:56:04.647Z,30.17
2017-10-15T19:58:31.299Z,25.90
2017-10-15T20:00:57.668Z,24.10
2017-10-15T20:03:24.777Z,26.57
2017-10-15T20:05:51.831Z,25.20
2017-10-15T20:08:18.940Z,21.17
2017-10-15T20:10:45.453Z,20.40
2017-10-15T20:13:12.556Z,22.33
2017-10-15T20:15:38.924Z,21.93
2017-10-15T20:18:06.080Z,22.10
2017-10-15T20:20:33.148Z,25.60
2017-10-15T20:22:59.454Z,27.80
2017-10-15T20:25:26.847Z,34.07
2017-10-15T20:27:53.178Z,24.63
2017-10-15T20:30:19.608Z,22.37
2017-10-15T20:32:46.018Z,24.07
2017-10-15T20:35:13.066Z,27.53
2017-10-15T20:37:40.114Z,34.83
2017-10-15T20:40:07.122Z,25.73
2017-10-15T20:42:34.004Z,25.67
2017-10-15T20:45:01.087Z,26.43
2017-10-15T20:47:27.404Z,28.30
2017-10-15T20:49:53.747Z,29.27
2017-10-15T20:52:20.552Z,29.47
2017-10-15T20:54:47.635Z,27.23
2017-10-15T20:57:14.077Z,26.03
2017-10-15T20:59:40.421Z,22.90
2017-10-15T21:02:07.620Z,28.10
2017-10-15T21:04:34.661Z,23.80
2017-10-15T21:07:01.732Z,24.13
2017-10-15T21:09:28.086Z,25.13
2017-10-15T21:11:54.444Z,20.70
2017-10-15T21:14:20.794Z,22.93
2017-10-15T21:16:47.104Z,26.77
2017-10-15T21:19:13.482Z,28.20
2017-10-15T21:21:39.835Z,22.93
2017-10-15T21:24:06.168Z,23.20
2017-10-15T21:26:33.211Z,17.07
2017-10-15T21:28:59.602Z,24.03
2017-10-15T21:31:26.905Z,23.37
2017-10-15T21:33:53.262Z,21.57
2017-10-15T21:36:19.637Z,25.23
2017-10-15T21:38:46.717Z,23.63
2017-10-15T21:41:13.209Z,23.80
2017-10-15T21:43:39.526Z,29.37
2017-10-15T21:46:05.869Z,21.33
2017-10-15T21:48:32.249Z,28.80
2017-10-15T21:50:58.699Z,24.20
2017-10-15T21:53:25.015Z,24.73
2017-10-15T21:55:51.341Z,24.17
2017-10-15T21:58:17.612Z,27.50
2017-10-15T22:00:43.905Z,21.67
2017-10-15T22:03:10.260Z,23.10
2017-10-15T22:05:36.625Z,17.80
2017-10-15T22:08:04.695Z,21.10
2017-10-15T22:10:31.733Z,20.70
2017-10-15T22:12:58.986Z,20.97
2017-10-15T22:15:25.295Z,24.43
2017-10-15T22:17:51.581Z,30.70
2017-10-15T22:20:17.997Z,24.23
2017-10-15T22:22:45.109Z,23.73
2017-10-15T22:25:12.035Z,21.33
2017-10-15T22:27:38.383Z,21.40
2017-10-15T22:30:05.432Z,21.73
2017-10-15T22:32:31.771Z,18.50
2017-10-15T22:34:58.087Z,24.80
2017-10-15T22:37:24.437Z,24.17
2017-10-15T22:39:50.733Z,27.33
2017-10-15T22:42:17.105Z,22.67
2017-10-15T22:44:44.359Z,21.77
2017-10-15T22:47:10.704Z,26.50
2017-10-15T22:49:37.078Z,21.93
2017-10-15T22:52:04.202Z,21.70
2017-10-15T22:54:30.532Z,19.87
2017-10-15T22:56:56.933Z,25.57
2017-10-15T22:59:23.266Z,25.23
2017-10-15T23:01:49.616Z,25.50
2017-10-15T23:04:16.722Z,20.20
2017-10-15T23:06:43.041Z,22.33
2017-10-15T23:09:09.377Z,22.57
2017-10-15T23:11:35.667Z,23.03
2017-10-15T23:14:02.721Z,23.83
2017-10-15T23:16:29.745Z,19.73
2017-10-15T23:18:56.102Z,19.23
2017-10-15T23:21:23.152Z,21.30
2017-10-15T23:23:49.495Z,20.50
2017-10-15T23:26:15.819Z,19.40
2017-10-15T23:28:42.117Z,20.50
2017-10-15T23:31:08.480Z,21.13
2017-10-15T23:33:34.793Z,22.17
2017-10-15T23:36:01.935Z,20.73
2017-10-15T23:38:28.255Z,27.83
2017-10-15T23:40:54.581Z,22.60
2017-10-15T23:43:20.937Z,19.17
2017-10-15T23:45:47.259Z,32.50
2017-10-15T23:48:13.580Z,19.20
2017-10-15T23:50:39.917Z,23.43
2017-10-15T23:53:06.235Z,33.47
2017-10-15T23:55:32.562Z,22.03
2017-10-15T23:57:59.580Z,20.43
